DeLand, FL

5:40 AM EDT on March 26, 2017 (GMT -0400)
De Land Municipal-Taylor

Weather History for KDED - October, 2012

Change the Weather History Date:

Wednesday, October 31, 2012

  Actual Average Record
Temperature  
Mean Temperature 58 °F -  
Max Temperature 71 °F 79 °F 84 °F (2013)
Min Temperature 46 °F 57 °F 59 °F (2014)
Degree Days  
Heating Degree Days 6    
Growing Degree Days 8 (Base 50)    
Moisture  
Dew Point 40 °F    
Average Humidity 53    
Maximum Humidity 76    
Minimum Humidity 27    
Precipitation  
Precipitation 0.00 in - - ()
Sea Level Pressure  
Sea Level Pressure 30.00 in    
Wind  
Wind Speed 5 mph ()    
Max Wind Speed 15 mph    
Max Gust Speed 22 mph    
Visibility 10.0 miles    
Events      
Averages and records for this station are not official NWS values.
T = Trace of Precipitation, MM = Missing Value Source: Averaged Metar Reports

Daily Weather History Graph

Daily Weather History Graph

Search for Another Location

Airport or City:

Trip Planner

Search our weather history database for the weather conditions in past years. The results will help you decide how hot, cold, wet, or windy it might be!

Date:

Astronomy

Oct. 31, 2012 Rise Set
Actual Time 7:37 AM EDT 6:39 PM EDT
Civil Twilight 7:12 AM EDT 7:04 PM EDT
Nautical Twilight 6:44 AM EDT 7:32 PM EDT
Astronomical Twilight 6:17 AM EDT 7:59 PM EDT
Moon 7:58 PM EDT (10/31) 9:08 AM EDT (10/31)
Length of Visible Light 11h 51m
Length of Day
11h 02m
Full, 97% of the Moon is Illuminated
Oct 31
Full
Nov 6
Last Quarter
Nov 13
New
Nov 20
First Quarter
Nov 28
Full

Hourly Weather History & Observations

Time (EDT) Temp. Windchill Dew Point Humidity Pressure Visibility Wind Dir Wind Speed Gust Speed Precip Events Conditions
12:15 AM 51.8 °F - 42.8 °F 71% 29.97 in 10.0 mi West 4.6 mph - N/A   Clear
12:35 AM 53.6 °F - 42.8 °F 67% 29.97 in 10.0 mi West 3.5 mph - N/A   Clear
12:55 AM 53.6 °F - 42.8 °F 67% 29.97 in 10.0 mi Calm Calm - N/A   Clear
1:15 AM 53.6 °F - 42.8 °F 67% 29.97 in 10.0 mi West 3.5 mph - N/A   Clear
1:35 AM 53.6 °F - 41.0 °F 62% 29.97 in 10.0 mi West 6.9 mph - N/A   Clear
1:55 AM 53.6 °F - 39.2 °F 58% 29.97 in 10.0 mi WNW 5.8 mph - N/A   Clear
2:15 AM 53.6 °F - 39.2 °F 58% 29.97 in 10.0 mi West 3.5 mph - N/A   Clear
2:35 AM 53.6 °F - 39.2 °F 58% 29.98 in 10.0 mi West 3.5 mph - N/A   Clear
2:55 AM 53.6 °F - 37.4 °F 54% 29.98 in 10.0 mi WNW 4.6 mph - N/A   Clear
3:15 AM 53.6 °F - 37.4 °F 54% 29.98 in 10.0 mi West 4.6 mph - N/A   Clear
3:35 AM 51.8 °F - 39.2 °F 62% 29.98 in 10.0 mi Calm Calm - N/A   Clear
3:55 AM 50.0 °F - 39.2 °F 66% 29.99 in 10.0 mi Calm Calm - N/A   Clear
4:15 AM 50.0 °F - 39.2 °F 66% 29.99 in 10.0 mi Calm Calm - N/A   Clear
4:35 AM 50.0 °F - 39.2 °F 66% 29.99 in 10.0 mi Calm Calm - N/A   Clear
4:55 AM 48.2 °F - 39.2 °F 71% 29.99 in 10.0 mi Calm Calm - N/A   Clear
5:15 AM 48.2 °F - 39.2 °F 71% 29.99 in 10.0 mi West 3.5 mph - N/A   Clear
5:35 AM 48.2 °F - 37.4 °F 66% 30.00 in 10.0 mi Calm Calm - N/A   Clear
5:55 AM 48.2 °F - 39.2 °F 71% 30.00 in 10.0 mi Calm Calm - N/A   Clear
6:15 AM 48.2 °F - 37.4 °F 66% 30.00 in 10.0 mi Calm Calm - N/A   Clear
6:35 AM 48.2 °F - 39.2 °F 71% 30.01 in 10.0 mi Calm Calm - N/A   Clear
6:55 AM 46.4 °F 44.3 °F 39.2 °F 76% 30.01 in 10.0 mi WNW 4.6 mph - N/A   Clear
7:15 AM 46.4 °F 44.3 °F 37.4 °F 71% 30.01 in 10.0 mi West 4.6 mph - N/A   Clear
7:35 AM 48.2 °F - 39.2 °F 71% 30.02 in 10.0 mi West 4.6 mph - N/A   Clear
7:55 AM 48.2 °F - 39.2 °F 71% 30.02 in 10.0 mi Calm Calm - N/A   Clear
8:15 AM 48.2 °F - 39.2 °F 71% 30.02 in 10.0 mi West 3.5 mph - N/A   Clear
8:35 AM 51.8 °F - 39.2 °F 62% 30.04 in 10.0 mi West 5.8 mph - N/A   Clear
8:55 AM 51.8 °F - 39.2 °F 62% 30.05 in 10.0 mi West 5.8 mph - N/A   Clear
9:15 AM 53.6 °F - 39.2 °F 58% 30.05 in 9.0 mi West 5.8 mph - N/A   Clear
9:35 AM 57.2 °F - 37.4 °F 48% 30.05 in 10.0 mi WNW 9.2 mph - N/A   Clear
9:55 AM 57.2 °F - 37.4 °F 48% 30.05 in 10.0 mi WNW 6.9 mph - N/A   Clear
10:15 AM 59.0 °F - 35.6 °F 42% 30.05 in 10.0 mi West 8.1 mph - N/A   Clear
10:35 AM 60.8 °F - 35.6 °F 39% 30.05 in 10.0 mi WNW 9.2 mph - N/A   Clear
10:55 AM 62.6 °F - 35.6 °F 37% 30.05 in 10.0 mi West 9.2 mph - N/A   Clear
11:15 AM 62.6 °F - 32.0 °F 32% 30.05 in 10.0 mi West 13.8 mph 20.7 mph N/A   Clear
11:55 AM 64.4 °F - 33.8 °F 32% 30.05 in 10.0 mi West 12.7 mph 18.4 mph N/A   Clear
12:15 PM 64.4 °F - 33.8 °F 32% 30.03 in 10.0 mi WNW 11.5 mph 18.4 mph N/A   Clear
12:35 PM 64.4 °F - 32.0 °F 30% 30.03 in 10.0 mi West 11.5 mph 21.9 mph N/A   Clear
12:55 PM 66.2 °F - 33.8 °F 30% 30.02 in 10.0 mi WNW 11.5 mph 21.9 mph N/A   Clear
1:15 PM 66.2 °F - 33.8 °F 30% 30.01 in 10.0 mi WNW 15.0 mph 20.7 mph N/A   Clear
1:55 PM 68.0 °F - 33.8 °F 28% 30.00 in 10.0 mi West 12.7 mph 20.7 mph N/A   Clear
2:15 PM 69.8 °F - 33.8 °F 27% 29.99 in 10.0 mi West 10.4 mph 20.7 mph N/A   Clear
2:55 PM 69.8 °F - 33.8 °F 27% 29.97 in 10.0 mi West 11.5 mph 16.1 mph N/A   Clear
3:35 PM 71.6 °F - 35.6 °F 27% 29.95 in 10.0 mi WNW 11.5 mph - N/A   Clear
4:15 PM 71.6 °F - 37.4 °F 29% 29.95 in 10.0 mi West 10.4 mph 17.3 mph N/A   Clear
4:35 PM 71.6 °F - 37.4 °F 29% 29.95 in 10.0 mi West 10.4 mph 16.1 mph N/A   Clear
4:55 PM 71.6 °F - 37.4 °F 29% 29.94 in 10.0 mi SW 10.4 mph 16.1 mph N/A   Clear
5:15 PM 71.6 °F - 37.4 °F 29% 29.94 in 9.0 mi WSW 11.5 mph - N/A   Clear
5:35 PM 69.8 °F - 39.2 °F 33% 29.95 in 10.0 mi WSW 10.4 mph 16.1 mph N/A   Clear
5:55 PM 69.8 °F - 42.8 °F 38% 29.95 in 10.0 mi WSW 9.2 mph 16.1 mph N/A   Clear
6:15 PM 68.0 °F - 42.8 °F 40% 29.96 in 9.0 mi WSW 12.7 mph 17.3 mph N/A   Clear
6:35 PM 66.2 °F - 42.8 °F 43% 29.96 in 10.0 mi WSW 8.1 mph - N/A   Clear
6:55 PM 64.4 °F - 42.8 °F 45% 29.97 in 10.0 mi WSW 8.1 mph - N/A   Clear
7:15 PM 64.4 °F - 42.8 °F 45% 29.97 in 10.0 mi WSW 5.8 mph - N/A   Clear
7:35 PM 62.6 °F - 42.8 °F 48% 29.98 in 10.0 mi WSW 8.1 mph - N/A   Clear
7:55 PM 62.6 °F - 42.8 °F 48% 29.99 in 10.0 mi WSW 6.9 mph - N/A   Clear
8:15 PM 62.6 °F - 44.6 °F 52% 29.99 in 10.0 mi WSW 8.1 mph - N/A   Clear
8:35 PM 62.6 °F - 44.6 °F 52% 29.99 in 10.0 mi WSW 6.9 mph - N/A   Clear
8:55 PM 60.8 °F - 44.6 °F 55% 29.99 in 10.0 mi SW 6.9 mph - N/A   Clear
9:15 PM 60.8 °F - 44.6 °F 55% 30.01 in 10.0 mi SW 4.6 mph - N/A   Clear
9:35 PM 59.0 °F - 46.4 °F 63% 30.01 in 10.0 mi SW 8.1 mph - N/A   Clear
9:55 PM 59.0 °F - 46.4 °F 63% 30.01 in 10.0 mi SW 3.5 mph - N/A   Clear
10:15 PM 59.0 °F - 46.4 °F 63% 30.01 in 10.0 mi WSW 5.8 mph - N/A   Clear
10:35 PM 59.0 °F - 46.4 °F 63% 30.01 in 10.0 mi SW 5.8 mph - N/A   Clear
10:55 PM 57.2 °F - 46.4 °F 67% 30.01 in 10.0 mi SW 3.5 mph - N/A   Clear
11:15 PM 57.2 °F - 48.2 °F 72% 30.02 in 10.0 mi SW 4.6 mph - N/A   Clear
11:35 PM 57.2 °F - 48.2 °F 72% 30.02 in 10.0 mi Calm Calm - N/A   Clear
11:55 PM 57.2 °F - 48.2 °F 72% 30.02 in 10.0 mi SW 5.8 mph - N/A   Clear